createdAt,value
2018-02-09T00:00:58.680Z,103.68
2018-02-09T00:03:26.109Z,93.03
2018-02-09T00:05:53.557Z,107.78
2018-02-09T00:08:21.413Z,108.25
2018-02-09T00:10:48.845Z,101.85
2018-02-09T00:13:16.273Z,97.32
2018-02-09T00:15:43.735Z,91.15
2018-02-09T00:18:11.173Z,100.20
2018-02-09T00:20:38.600Z,91.65
2018-02-09T00:23:06.020Z,93.70
2018-02-09T00:25:33.472Z,95.12
2018-02-09T00:28:00.961Z,93.75
2018-02-09T00:30:28.384Z,92.35
2018-02-09T00:32:55.838Z,94.87
2018-02-09T00:35:23.296Z,97.47
2018-02-09T00:37:50.715Z,101.38
2018-02-09T00:40:18.161Z,99.75
2018-02-09T00:42:45.654Z,94.55
2018-02-09T00:45:13.071Z,93.47
2018-02-09T00:47:40.505Z,99.95
2018-02-09T00:50:07.928Z,99.32
2018-02-09T00:52:35.384Z,103.07
2018-02-09T00:55:02.804Z,99.13
2018-02-09T00:57:30.232Z,107.55
2018-02-09T00:59:57.696Z,102.07
2018-02-09T01:02:25.128Z,101.57
2018-02-09T01:04:52.609Z,99.60
2018-02-09T01:07:20.048Z,99.82
2018-02-09T01:09:47.452Z,104.43
2018-02-09T01:12:14.949Z,108.68
2018-02-09T01:14:42.373Z,103.82
2018-02-09T01:17:09.809Z,102.87
2018-02-09T01:19:37.240Z,96.93
2018-02-09T01:22:04.661Z,93.28
2018-02-09T01:24:32.112Z,97.25
2018-02-09T01:26:59.556Z,94.20
2018-02-09T01:29:26.981Z,91.30
2018-02-09T01:31:54.401Z,94.62
2018-02-09T01:34:21.836Z,95.57
2018-02-09T01:36:49.252Z,95.68
2018-02-09T01:39:16.687Z,92.47
2018-02-09T01:41:44.099Z,110.12
2018-02-09T01:44:11.676Z,99.85
2018-02-09T01:46:39.098Z,98.55
2018-02-09T01:49:06.556Z,101.10
2018-02-09T01:51:33.964Z,98.60
2018-02-09T01:54:01.417Z,104.63
2018-02-09T01:56:28.871Z,113.78
2018-02-09T01:58:56.279Z,106.50
2018-02-09T02:01:23.708Z,108.60
2018-02-09T02:03:51.120Z,110.85
2018-02-09T02:06:18.545Z,105.15
2018-02-09T02:08:45.980Z,109.50
2018-02-09T02:11:13.412Z,103.43
2018-02-09T02:13:40.833Z,93.55
2018-02-09T02:16:08.276Z,94.90
2018-02-09T02:18:35.772Z,96.28
2018-02-09T02:21:03.180Z,104.03
2018-02-09T02:23:30.603Z,97.22
2018-02-09T02:25:58.029Z,102.32
2018-02-09T02:28:25.476Z,99.22
2018-02-09T02:30:52.933Z,97.43
2018-02-09T02:33:20.344Z,89.80
2018-02-09T02:35:47.810Z,104.35
2018-02-09T02:38:15.237Z,100.78
2018-02-09T02:40:42.684Z,100.57
2018-02-09T02:43:10.124Z,96.55
2018-02-09T02:45:37.577Z,103.15
2018-02-09T02:48:05.049Z,95.65
2018-02-09T02:50:32.534Z,102.87
2018-02-09T02:52:59.958Z,93.28
2018-02-09T02:55:27.394Z,99.68
2018-02-09T02:57:54.803Z,96.00
2018-02-09T03:00:22.281Z,94.85
2018-02-09T03:02:49.713Z,95.25
2018-02-09T03:05:17.145Z,98.78
2018-02-09T03:07:44.625Z,106.80
2018-02-09T03:10:12.039Z,103.70
2018-02-09T03:12:39.483Z,102.22
2018-02-09T03:15:06.917Z,100.20
2018-02-09T03:17:34.385Z,93.00
2018-02-09T03:20:01.816Z,106.40
2018-02-09T03:22:29.228Z,98.03
2018-02-09T03:24:56.670Z,98.75
2018-02-09T03:27:24.121Z,102.65
2018-02-09T03:29:51.573Z,102.22
2018-02-09T03:32:18.990Z,98.53
2018-02-09T03:34:46.415Z,102.25
2018-02-09T03:37:13.871Z,100.60
2018-02-09T03:39:41.292Z,102.00
2018-02-09T03:42:08.746Z,102.80
2018-02-09T03:44:36.199Z,96.87
2018-02-09T03:47:03.633Z,102.07
2018-02-09T03:49:31.084Z,100.28
2018-02-09T03:51:58.514Z,102.45
2018-02-09T03:54:25.950Z,100.20
2018-02-09T03:56:53.397Z,97.10
2018-02-09T03:59:20.814Z,91.28
2018-02-09T04:01:48.242Z,98.22
2018-02-09T04:04:15.675Z,93.20
2018-02-09T04:06:43.087Z,96.37
2018-02-09T04:09:10.512Z,91.75
2018-02-09T04:11:37.933Z,112.65
2018-02-09T04:14:05.393Z,112.80
2018-02-09T04:16:32.825Z,100.82
2018-02-09T04:19:00.240Z,100.38
2018-02-09T04:21:27.658Z,111.30
2018-02-09T04:23:55.093Z,98.32
2018-02-09T04:26:22.502Z,95.82
2018-02-09T04:28:49.920Z,95.22
2018-02-09T04:31:17.367Z,92.60
2018-02-09T04:33:44.772Z,103.80
2018-02-09T04:36:12.199Z,110.50
2018-02-09T04:38:39.608Z,99.70
2018-02-09T04:41:07.049Z,109.30
2018-02-09T04:43:34.465Z,102.87
2018-02-09T04:46:01.900Z,106.47
2018-02-09T04:48:29.300Z,99.28
2018-02-09T04:50:56.726Z,97.32
2018-02-09T04:53:24.152Z,93.03
2018-02-09T04:55:51.565Z,99.82
2018-02-09T04:58:18.981Z,92.93
2018-02-09T05:00:46.436Z,106.07
2018-02-09T05:03:13.871Z,104.60
2018-02-09T05:05:41.296Z,105.43
2018-02-09T05:08:08.742Z,104.68
2018-02-09T05:10:36.233Z,93.65
2018-02-09T05:13:03.656Z,103.53
2018-02-09T05:15:31.086Z,105.43
2018-02-09T05:17:58.499Z,104.32
2018-02-09T05:20:25.925Z,97.30
2018-02-09T05:22:53.352Z,93.45
2018-02-09T05:25:20.770Z,109.85
2018-02-09T05:27:48.200Z,94.90
2018-02-09T05:30:15.613Z,101.05
2018-02-09T05:32:43.032Z,101.47
2018-02-09T05:35:10.457Z,100.87
2018-02-09T05:37:37.918Z,101.20
2018-02-09T05:40:05.337Z,109.47
2018-02-09T05:42:32.752Z,97.85
2018-02-09T05:45:00.160Z,98.82
2018-02-09T05:47:27.587Z,97.75
2018-02-09T05:49:55.001Z,98.18
2018-02-09T05:52:22.412Z,98.75
2018-02-09T05:54:49.828Z,97.40
2018-02-09T05:57:17.240Z,97.82
2018-02-09T05:59:44.661Z,96.72
2018-02-09T06:02:12.073Z,98.47
2018-02-09T06:04:39.561Z,100.57
2018-02-09T06:07:06.970Z,99.35
2018-02-09T06:09:34.574Z,94.75
2018-02-09T06:12:02.049Z,101.40
2018-02-09T06:14:29.476Z,91.90
2018-02-09T06:16:56.894Z,95.80
2018-02-09T06:19:24.313Z,93.72
2018-02-09T06:21:51.740Z,100.32
2018-02-09T06:24:19.173Z,92.37
2018-02-09T06:26:46.653Z,89.87
2018-02-09T06:29:14.069Z,93.45
2018-02-09T06:31:41.488Z,105.12
2018-02-09T06:34:08.910Z,95.93
2018-02-09T06:36:36.346Z,95.18
2018-02-09T06:39:03.760Z,99.18
2018-02-09T06:41:31.177Z,93.15
2018-02-09T06:43:58.650Z,88.05
2018-02-09T06:46:26.061Z,95.72
2018-02-09T06:48:53.531Z,92.75
2018-02-09T06:51:20.956Z,97.32
2018-02-09T06:53:48.397Z,101.53
2018-02-09T06:56:15.825Z,96.63
2018-02-09T06:58:43.261Z,97.97
2018-02-09T07:01:10.720Z,108.70
2018-02-09T07:03:38.161Z,98.70
2018-02-09T07:06:05.703Z,100.25
2018-02-09T07:08:33.181Z,108.37
2018-02-09T07:11:00.632Z,111.70
2018-02-09T07:13:28.048Z,102.53
2018-02-09T07:15:55.513Z,98.65
2018-02-09T07:18:23.834Z,107.68
2018-02-09T07:20:52.815Z,94.45
2018-02-09T07:23:20.232Z,100.25
2018-02-09T07:25:47.669Z,105.63
2018-02-09T07:28:15.100Z,103.70
2018-02-09T07:30:42.548Z,106.00
2018-02-09T07:33:09.964Z,121.43
2018-02-09T07:35:37.566Z,111.97
2018-02-09T07:38:05.251Z,106.65
2018-02-09T07:40:33.180Z,114.68
2018-02-09T07:43:01.058Z,116.22
2018-02-09T07:45:28.500Z,117.95
2018-02-09T07:47:55.981Z,114.60
2018-02-09T07:50:23.398Z,115.70
2018-02-09T07:52:50.844Z,114.40
2018-02-09T07:55:18.324Z,119.30
2018-02-09T07:57:45.776Z,114.85
2018-02-09T08:00:13.216Z,112.60
2018-02-09T08:02:40.680Z,105.63
2018-02-09T08:05:08.113Z,107.07
2018-02-09T08:07:35.968Z,109.18
2018-02-09T08:10:03.434Z,116.18
2018-02-09T08:12:30.872Z,102.65
2018-02-09T08:14:58.312Z,104.03
2018-02-09T08:17:25.808Z,106.60
2018-02-09T08:19:53.233Z,99.37
2018-02-09T08:22:20.718Z,114.62
2018-02-09T08:24:48.171Z,112.93
2018-02-09T08:27:15.594Z,96.78
2018-02-09T08:29:43.656Z,101.70
2018-02-09T08:32:11.072Z,102.85
2018-02-09T08:34:38.905Z,110.78
2018-02-09T08:37:06.324Z,107.63
2018-02-09T08:39:33.740Z,100.50
2018-02-09T08:42:01.164Z,109.82
2018-02-09T08:44:28.576Z,108.00
2018-02-09T08:46:56.000Z,106.00
2018-02-09T08:49:23.416Z,106.97
2018-02-09T08:51:50.990Z,107.75
2018-02-09T08:54:18.400Z,106.15
2018-02-09T08:56:45.810Z,93.87
2018-02-09T08:59:13.228Z,104.25
2018-02-09T09:01:40.661Z,106.87
2018-02-09T09:04:08.122Z,101.30
2018-02-09T09:06:35.516Z,109.22
2018-02-09T09:09:02.945Z,103.12
2018-02-09T09:11:30.372Z,113.82
2018-02-09T09:13:57.797Z,104.80
2018-02-09T09:16:25.235Z,105.47
2018-02-09T09:18:52.656Z,111.95
2018-02-09T09:21:20.085Z,109.18
2018-02-09T09:23:47.508Z,103.95
2018-02-09T09:26:14.933Z,106.22
2018-02-09T09:28:42.360Z,107.22
2018-02-09T09:31:09.789Z,104.63
2018-02-09T09:33:37.256Z,114.32
2018-02-09T09:36:04.664Z,105.32
2018-02-09T09:38:32.083Z,101.38
2018-02-09T09:40:59.506Z,107.65
2018-02-09T09:43:26.914Z,101.75
2018-02-09T09:45:54.332Z,103.93
2018-02-09T09:48:21.748Z,104.30
2018-02-09T09:50:49.169Z,103.93
2018-02-09T09:53:16.580Z,96.60
2018-02-09T09:55:44.048Z,108.00
2018-02-09T09:58:11.492Z,103.12
2018-02-09T10:00:38.912Z,109.03
2018-02-09T10:03:06.324Z,101.30
2018-02-09T10:05:33.736Z,101.03
2018-02-09T10:08:01.165Z,99.37
2018-02-09T10:10:28.609Z,105.07
2018-02-09T10:12:56.017Z,90.40
2018-02-09T10:15:23.437Z,98.00
2018-02-09T10:17:50.855Z,91.63
2018-02-09T10:20:18.271Z,89.32
2018-02-09T10:22:45.681Z,95.55
2018-02-09T10:25:13.097Z,102.53
2018-02-09T10:27:40.542Z,92.15
2018-02-09T10:30:07.948Z,91.97
2018-02-09T10:32:35.372Z,91.47
2018-02-09T10:35:02.798Z,101.72
2018-02-09T10:37:30.213Z,98.95
2018-02-09T10:39:57.632Z,103.00
2018-02-09T10:42:25.068Z,93.57
2018-02-09T10:44:52.496Z,90.57
2018-02-09T10:47:19.912Z,100.28
2018-02-09T10:49:47.330Z,94.55
2018-02-09T10:52:14.754Z,89.68
2018-02-09T10:54:42.218Z,97.35
2018-02-09T10:57:09.630Z,97.57
2018-02-09T10:59:37.042Z,93.40
2018-02-09T11:02:04.468Z,100.97
2018-02-09T11:04:31.884Z,94.35
2018-02-09T11:06:59.306Z,92.75
2018-02-09T11:09:31.548Z,91.25
2018-02-09T11:15:03.899Z,85.65
2018-02-09T11:17:31.277Z,94.37
2018-02-09T11:19:58.700Z,87.95
2018-02-09T11:22:26.121Z,90.53
2018-02-09T11:24:52.820Z,87.05
2018-02-09T11:27:20.277Z,88.95
2018-02-09T11:29:47.700Z,90.05
2018-02-09T11:32:15.135Z,97.88
2018-02-09T11:34:42.560Z,93.62
2018-02-09T11:37:09.974Z,86.25
2018-02-09T11:39:37.410Z,87.50
2018-02-09T11:42:04.828Z,79.85
2018-02-09T11:44:32.249Z,85.28
2018-02-09T11:46:59.664Z,86.60
2018-02-09T11:49:27.084Z,87.75
2018-02-09T11:51:54.499Z,85.15
2018-02-09T11:54:21.939Z,93.62
2018-02-09T11:56:49.352Z,82.28
2018-02-09T11:59:16.772Z,83.12
2018-02-09T12:01:44.192Z,79.65
2018-02-09T12:04:11.606Z,81.25
2018-02-09T12:06:39.843Z,81.60
2018-02-09T12:09:07.258Z,76.20
2018-02-09T12:11:34.673Z,81.63
2018-02-09T12:14:02.089Z,79.90
2018-02-09T12:16:29.557Z,74.55
2018-02-09T12:18:56.973Z,85.80
2018-02-09T12:21:24.392Z,83.85
2018-02-09T12:23:51.805Z,80.38
2018-02-09T12:26:19.244Z,81.07
2018-02-09T12:28:46.936Z,75.97
2018-02-09T12:31:14.349Z,94.60
2018-02-09T12:33:41.773Z,80.90
2018-02-09T12:36:09.195Z,75.03
2018-02-09T12:38:36.626Z,83.07
2018-02-09T12:41:04.076Z,82.47
2018-02-09T12:43:31.489Z,73.05
2018-02-09T12:45:58.917Z,73.35
2018-02-09T12:48:26.390Z,76.55
2018-02-09T12:50:53.808Z,70.45
2018-02-09T12:53:21.220Z,73.28
2018-02-09T12:55:48.688Z,72.40
2018-02-09T12:58:16.231Z,71.00
2018-02-09T13:00:43.675Z,68.20
2018-02-09T13:03:11.146Z,77.22
2018-02-09T13:05:38.553Z,66.95
2018-02-09T13:08:06.015Z,67.35
2018-02-09T13:10:33.501Z,73.75
2018-02-09T13:13:07.691Z,70.00
2018-02-09T13:15:35.129Z,71.70
2018-02-09T13:18:02.580Z,70.25
2018-02-09T13:20:29.994Z,72.37
2018-02-09T13:26:01.121Z,66.00
2018-02-09T13:28:40.227Z,72.85
2018-02-09T13:31:07.665Z,63.28
2018-02-09T13:33:35.124Z,64.18
2018-02-09T13:36:02.585Z,60.75
2018-02-09T13:38:30.023Z,64.30
2018-02-09T13:40:57.472Z,60.30
2018-02-09T13:43:25.909Z,62.10
2018-02-09T13:45:53.342Z,64.57
2018-02-09T13:48:20.787Z,58.22
2018-02-09T13:50:48.276Z,56.42
2018-02-09T13:53:15.713Z,58.95
2018-02-09T13:55:43.156Z,58.95
2018-02-09T13:58:10.580Z,60.50
2018-02-09T14:00:38.016Z,57.50
2018-02-09T14:03:05.462Z,60.60
2018-02-09T14:05:33.000Z,59.78
2018-02-09T14:08:00.495Z,58.53
2018-02-09T14:10:27.900Z,62.60
2018-02-09T14:12:55.389Z,62.88
2018-02-09T14:15:22.812Z,60.80
2018-02-09T14:17:50.260Z,60.92
2018-02-09T14:20:17.668Z,61.37
2018-02-09T14:22:45.104Z,60.30
2018-02-09T14:25:12.527Z,60.25
2018-02-09T14:27:39.956Z,63.05
2018-02-09T14:30:07.405Z,62.78
2018-02-09T14:32:34.834Z,60.65
2018-02-09T14:35:02.288Z,62.62
2018-02-09T14:37:29.700Z,63.42
2018-02-09T14:39:57.129Z,59.97
2018-02-09T14:42:24.599Z,64.62
2018-02-09T14:44:52.048Z,55.08
2018-02-09T14:47:19.485Z,56.67
2018-02-09T14:49:46.893Z,53.50
2018-02-09T14:52:14.484Z,55.40
2018-02-09T14:54:46.105Z,59.03
2018-02-09T14:57:13.556Z,49.55
2018-02-09T14:59:41.012Z,47.60
2018-02-09T15:02:08.448Z,47.33
2018-02-09T15:04:35.872Z,46.78
2018-02-09T15:07:03.752Z,48.87
2018-02-09T15:09:31.168Z,44.53
2018-02-09T15:11:58.592Z,42.35
2018-02-09T15:14:26.033Z,37.72
2018-02-09T15:16:54.889Z,41.10
2018-02-09T15:19:22.624Z,40.88
2018-02-09T15:21:50.165Z,40.25
2018-02-09T15:24:17.684Z,41.37
2018-02-09T15:26:45.101Z,43.78
2018-02-09T15:29:12.512Z,38.00
2018-02-09T15:31:39.932Z,41.40
2018-02-09T15:34:07.352Z,40.33
2018-02-09T15:36:34.777Z,36.38
2018-02-09T15:39:02.192Z,35.72
2018-02-09T15:41:29.620Z,36.88
2018-02-09T15:43:57.036Z,40.08
2018-02-09T15:46:24.556Z,35.53
2018-02-09T15:48:52.022Z,36.13
2018-02-09T15:51:19.424Z,35.40
2018-02-09T15:53:46.853Z,35.50
2018-02-09T15:56:14.265Z,38.50
2018-02-09T15:58:41.681Z,39.65
2018-02-09T16:01:09.103Z,36.88
2018-02-09T16:03:36.573Z,39.05
2018-02-09T16:06:03.975Z,41.53
2018-02-09T16:08:31.404Z,41.05
2018-02-09T16:10:58.826Z,39.78
2018-02-09T16:13:26.243Z,41.60
2018-02-09T16:15:53.656Z,38.35
2018-02-09T16:18:21.082Z,44.13
2018-02-09T16:20:48.512Z,36.38
2018-02-09T16:23:15.917Z,41.83
2018-02-09T16:25:43.357Z,42.83
2018-02-09T16:28:10.792Z,34.55
2018-02-09T16:30:38.212Z,36.25
2018-02-09T16:33:05.632Z,35.80
2018-02-09T16:35:33.712Z,34.70
2018-02-09T16:38:01.367Z,37.00
2018-02-09T16:40:28.935Z,33.05
2018-02-09T16:42:58.548Z,33.40
2018-02-09T16:45:25.956Z,34.75
2018-02-09T16:47:53.463Z,35.17
2018-02-09T16:50:20.932Z,36.28
2018-02-09T16:52:48.350Z,32.22
2018-02-09T16:55:16.453Z,31.05
2018-02-09T16:57:48.979Z,33.17
2018-02-09T17:00:16.390Z,32.83
2018-02-09T17:02:44.988Z,33.83
2018-02-09T17:05:12.405Z,34.00
2018-02-09T17:07:44.238Z,35.67
2018-02-09T17:10:12.716Z,34.25
2018-02-09T17:12:40.147Z,35.33
2018-02-09T17:15:07.688Z,35.25
2018-02-09T17:17:35.162Z,36.22
2018-02-09T17:20:03.403Z,35.75
2018-02-09T17:22:30.828Z,37.72
2018-02-09T17:24:58.455Z,35.83
2018-02-09T17:27:25.884Z,39.10
2018-02-09T17:29:53.300Z,39.92
2018-02-09T17:32:20.781Z,36.83
2018-02-09T17:34:52.206Z,37.65
2018-02-09T17:37:19.612Z,36.97
2018-02-09T17:39:53.157Z,40.88
2018-02-09T17:42:20.589Z,44.78
2018-02-09T17:44:48.040Z,43.42
2018-02-09T17:47:15.457Z,43.13
2018-02-09T17:49:42.936Z,43.20
2018-02-09T17:52:10.345Z,47.22
2018-02-09T17:54:37.773Z,41.53
2018-02-09T17:57:05.836Z,42.72
2018-02-09T17:59:33.253Z,42.88
2018-02-09T18:02:00.725Z,42.58
2018-02-09T18:04:34.044Z,37.90
2018-02-09T18:07:01.496Z,44.47
2018-02-09T18:09:28.908Z,44.40
2018-02-09T18:11:56.364Z,41.80
2018-02-09T18:14:23.809Z,44.67
2018-02-09T18:16:51.287Z,43.08
2018-02-09T18:19:18.822Z,40.88
2018-02-09T18:21:46.205Z,40.08
2018-02-09T18:24:13.637Z,41.88
2018-02-09T18:26:41.089Z,42.75
2018-02-09T18:29:08.514Z,38.53
2018-02-09T18:31:35.949Z,42.97
2018-02-09T18:34:03.405Z,43.08
2018-02-09T18:36:30.848Z,38.63
2018-02-09T18:38:58.293Z,47.15
2018-02-09T18:41:25.725Z,42.10
2018-02-09T18:43:53.197Z,41.37
2018-02-09T18:46:20.614Z,36.78
2018-02-09T18:48:48.049Z,36.55
2018-02-09T18:51:15.499Z,42.95
2018-02-09T18:53:42.920Z,40.70
2018-02-09T18:56:10.369Z,33.78
2018-02-09T18:58:37.772Z,41.30
2018-02-09T19:01:09.198Z,36.17
2018-02-09T19:03:36.629Z,38.47
2018-02-09T19:06:04.060Z,37.28
2018-02-09T19:08:31.488Z,37.25
2018-02-09T19:10:58.946Z,34.85
2018-02-09T19:13:26.365Z,36.15
2018-02-09T19:15:53.793Z,37.80
2018-02-09T19:18:21.256Z,42.00
2018-02-09T19:20:48.668Z,37.70
2018-02-09T19:23:16.133Z,33.38
2018-02-09T19:25:43.569Z,38.15
2018-02-09T19:28:11.019Z,41.70
2018-02-09T19:30:38.461Z,30.75
2018-02-09T19:33:05.893Z,36.70
2018-02-09T19:35:33.328Z,33.75
2018-02-09T19:38:00.744Z,36.88
2018-02-09T19:40:28.208Z,35.63
2018-02-09T19:42:55.633Z,35.88
2018-02-09T19:45:23.065Z,34.35
2018-02-09T19:47:50.477Z,32.92
2018-02-09T19:50:17.892Z,35.10
2018-02-09T19:52:45.337Z,32.53
2018-02-09T19:55:12.716Z,32.58
2018-02-09T19:57:40.156Z,35.15
2018-02-09T20:00:07.559Z,35.05
2018-02-09T20:02:34.976Z,34.65
2018-02-09T20:05:02.397Z,32.08
2018-02-09T20:07:29.836Z,36.20
2018-02-09T20:09:57.253Z,33.50
2018-02-09T20:12:24.688Z,33.67
2018-02-09T20:14:52.108Z,38.30
2018-02-09T20:17:19.524Z,37.17
2018-02-09T20:19:46.965Z,32.83
2018-02-09T20:22:14.423Z,38.13
2018-02-09T20:24:41.855Z,39.10
2018-02-09T20:27:09.282Z,40.70
2018-02-09T20:29:36.709Z,42.70
2018-02-09T20:32:04.181Z,38.28
2018-02-09T20:34:31.600Z,42.33
2018-02-09T20:36:59.080Z,38.05
2018-02-09T20:39:26.519Z,41.70
2018-02-09T20:41:53.933Z,45.83
2018-02-09T20:44:21.371Z,43.90
2018-02-09T20:46:48.825Z,47.10
2018-02-09T20:49:16.281Z,38.08
2018-02-09T20:51:43.717Z,41.95
2018-02-09T20:54:11.133Z,42.95
2018-02-09T20:56:38.558Z,43.47
2018-02-09T20:59:05.976Z,43.70
2018-02-09T21:01:33.445Z,45.40
2018-02-09T21:04:00.877Z,44.10
2018-02-09T21:06:28.296Z,39.63
2018-02-09T21:08:55.705Z,42.15
2018-02-09T21:11:23.145Z,41.58
2018-02-09T21:13:50.564Z,42.28
2018-02-09T21:16:17.997Z,44.28
2018-02-09T21:18:45.423Z,38.20
2018-02-09T21:21:12.841Z,42.55
2018-02-09T21:23:40.328Z,41.85
2018-02-09T21:26:07.775Z,40.45
2018-02-09T21:28:35.195Z,42.78
2018-02-09T21:31:02.613Z,35.83
2018-02-09T21:33:30.075Z,38.33
2018-02-09T21:35:57.516Z,46.35
2018-02-09T21:38:24.936Z,41.20
2018-02-09T21:40:52.348Z,38.75
2018-02-09T21:43:19.784Z,38.95
2018-02-09T21:45:47.200Z,39.92
2018-02-09T21:48:14.664Z,40.83
2018-02-09T21:50:42.113Z,42.65
2018-02-09T21:53:09.557Z,39.20
2018-02-09T21:55:36.981Z,40.12
2018-02-09T21:58:04.440Z,37.53
2018-02-09T22:00:31.897Z,36.13
2018-02-09T22:03:02.365Z,34.22
2018-02-09T22:05:29.792Z,37.95
2018-02-09T22:07:57.289Z,38.03
2018-02-09T22:10:24.973Z,36.65
2018-02-09T22:12:52.424Z,39.30
2018-02-09T22:15:19.873Z,39.03
2018-02-09T22:17:47.297Z,40.90
2018-02-09T22:20:14.737Z,38.38
2018-02-09T22:22:42.164Z,38.33
2018-02-09T22:25:09.640Z,35.47
2018-02-09T22:27:37.134Z,34.58
2018-02-09T22:30:04.537Z,40.45
2018-02-09T22:32:31.965Z,37.17
2018-02-09T22:34:59.385Z,35.72
2018-02-09T22:37:26.824Z,43.22
2018-02-09T22:39:54.243Z,43.90
2018-02-09T22:42:21.704Z,34.90
2018-02-09T22:44:49.121Z,39.75
2018-02-09T22:47:16.586Z,44.85
2018-02-09T22:49:44.040Z,39.70
2018-02-09T22:52:11.452Z,44.50
2018-02-09T22:54:39.486Z,44.50
2018-02-09T22:57:06.916Z,43.50
2018-02-09T22:59:34.344Z,38.47
2018-02-09T23:02:01.793Z,38.00
2018-02-09T23:04:29.204Z,39.33
2018-02-09T23:06:56.710Z,36.28
2018-02-09T23:09:24.096Z,40.00
2018-02-09T23:11:51.552Z,41.33
2018-02-09T23:14:19.016Z,39.00
2018-02-09T23:16:48.021Z,39.42
2018-02-09T23:19:16.352Z,41.10
2018-02-09T23:21:43.868Z,41.65
2018-02-09T23:24:11.317Z,44.08
2018-02-09T23:26:38.734Z,38.85
2018-02-09T23:29:06.189Z,37.78
2018-02-09T23:34:49.577Z,37.55
2018-02-09T23:37:17.015Z,44.13
2018-02-09T23:39:44.448Z,42.88
2018-02-09T23:42:11.856Z,36.05
2018-02-09T23:44:39.337Z,39.60
2018-02-09T23:47:06.773Z,38.60
2018-02-09T23:49:34.197Z,38.83
2018-02-09T23:52:01.673Z,50.60
2018-02-09T23:54:29.110Z,38.00
2018-02-09T23:56:56.534Z,38.75
2018-02-09T23:59:23.948Z,44.45
